createdAt,value
2022-09-30T00:00:23.461Z,99696.44
2022-09-30T00:05:25.054Z,99696.41
2022-09-30T00:10:26.722Z,99698.88
2022-09-30T00:15:28.228Z,99712.75
2022-09-30T00:20:29.749Z,99712.91
2022-09-30T00:25:31.230Z,99712.75
2022-09-30T00:30:32.918Z,99709.13
2022-09-30T00:35:34.462Z,99702.41
2022-09-30T00:40:38.849Z,99713.22
2022-09-30T00:45:48.675Z,99710.72
2022-09-30T00:50:51.751Z,99710.19
2022-09-30T00:56:16.474Z,99712.94
2022-09-30T01:01:19.257Z,99720.00
2022-09-30T01:06:23.602Z,99726.59
2022-09-30T01:11:27.417Z,99726.53
2022-09-30T01:16:45.784Z,99726.78
2022-09-30T01:21:53.131Z,99721.38
2022-09-30T01:27:05.027Z,99727.88
2022-09-30T01:32:40.860Z,99742.06
2022-09-30T01:37:51.323Z,99741.25
2022-09-30T01:43:10.615Z,99735.50
2022-09-30T01:48:39.159Z,99731.91
2022-09-30T01:53:46.791Z,99736.75
2022-09-30T01:58:57.700Z,99734.97
2022-09-30T02:04:05.397Z,99738.16
2022-09-30T02:09:13.812Z,99743.88
2022-09-30T02:14:23.563Z,99740.13
2022-09-30T02:19:29.218Z,99746.25
2022-09-30T02:24:35.518Z,99753.84
2022-09-30T02:29:42.107Z,99751.22
2022-09-30T02:34:50.609Z,99756.78
2022-09-30T02:40:02.004Z,99761.72
2022-09-30T02:45:08.204Z,99743.47
2022-09-30T02:50:35.114Z,99754.13
2022-09-30T02:55:51.149Z,99755.53
2022-09-30T03:00:54.341Z,99760.47
2022-09-30T03:05:56.120Z,99767.88
2022-09-30T03:10:57.653Z,99774.16
2022-09-30T03:16:20.887Z,99773.03
2022-09-30T03:21:29.792Z,99768.16
2022-09-30T03:26:42.198Z,99774.59
2022-09-30T03:32:03.486Z,99794.09
2022-09-30T03:37:30.781Z,99789.41
2022-09-30T03:42:39.441Z,99802.31
2022-09-30T03:47:46.829Z,99803.91
2022-09-30T03:52:49.921Z,99813.34
2022-09-30T03:57:51.629Z,99833.53
2022-09-30T04:02:57.666Z,99827.56
2022-09-30T04:07:59.442Z,99842.75
2022-09-30T04:13:00.957Z,99849.25
2022-09-30T04:18:04.081Z,99844.72
2022-09-30T04:23:05.570Z,99844.06
2022-09-30T04:28:07.857Z,99844.44
2022-09-30T04:33:09.435Z,99838.72
2022-09-30T04:38:11.022Z,99840.47
2022-09-30T04:43:12.596Z,99843.91
2022-09-30T04:48:14.839Z,99850.41
2022-09-30T04:53:17.894Z,99848.72
2022-09-30T04:58:19.365Z,99852.41
2022-09-30T05:03:20.874Z,99870.56
2022-09-30T05:08:22.361Z,99878.47
2022-09-30T05:13:31.702Z,99886.25
2022-09-30T05:18:33.643Z,99890.94
2022-09-30T05:23:35.109Z,99896.53
2022-09-30T05:28:36.596Z,99906.66
2022-09-30T05:33:38.063Z,99906.75
2022-09-30T05:38:39.456Z,99922.38
2022-09-30T05:43:42.473Z,99927.63
2022-09-30T05:48:44.119Z,99927.53
2022-09-30T05:53:45.683Z,99932.13
2022-09-30T05:58:47.184Z,99932.16
2022-09-30T06:03:48.739Z,99939.38
2022-09-30T06:08:50.365Z,99946.28
2022-09-30T06:13:52.047Z,99955.94
2022-09-30T06:18:53.443Z,99960.59
2022-09-30T06:23:54.903Z,99963.06
2022-09-30T06:28:56.309Z,99963.34
2022-09-30T06:33:57.799Z,99973.28
2022-09-30T06:39:04.253Z,99979.31
2022-09-30T06:44:05.819Z,99991.84
2022-09-30T06:49:13.450Z,99981.78
2022-09-30T06:54:15.385Z,99995.56
2022-09-30T06:59:16.761Z,100003.34
2022-09-30T07:04:18.439Z,99992.94
2022-09-30T07:09:20.233Z,99996.28
2022-09-30T07:14:21.819Z,99994.97
2022-09-30T07:19:23.379Z,99999.19
2022-09-30T07:24:24.882Z,99999.00
2022-09-30T07:29:26.408Z,99998.00
2022-09-30T07:34:27.862Z,99999.75
2022-09-30T07:39:29.579Z,100008.16
2022-09-30T07:44:31.363Z,100017.56
2022-09-30T07:49:32.918Z,100006.81
2022-09-30T07:54:38.774Z,100022.44
2022-09-30T07:59:42.881Z,100024.41
2022-09-30T08:04:45.210Z,100031.28
2022-09-30T08:09:46.862Z,100025.66
2022-09-30T08:14:48.357Z,100035.63
2022-09-30T08:19:49.926Z,100025.91
2022-09-30T08:24:51.378Z,100025.94
2022-09-30T08:29:55.851Z,100025.22
2022-09-30T08:34:58.160Z,100028.88
2022-09-30T08:39:59.657Z,100027.41
2022-09-30T08:45:18.762Z,100032.13
2022-09-30T08:51:03.345Z,100045.84
2022-09-30T08:56:06.976Z,100045.94
2022-09-30T09:01:46.630Z,100042.25
2022-09-30T09:06:57.881Z,100045.31
2022-09-30T09:12:25.722Z,100053.31
2022-09-30T09:18:04.589Z,100048.59
2022-09-30T09:23:13.916Z,100053.31
2022-09-30T09:28:35.571Z,100039.78
2022-09-30T09:33:39.212Z,100046.72
2022-09-30T09:38:54.177Z,100030.72
2022-09-30T09:44:14.075Z,100025.97
2022-09-30T09:49:15.475Z,100021.81
2022-09-30T09:54:20.910Z,100017.44
2022-09-30T09:59:22.786Z,100015.56
2022-09-30T10:04:26.799Z,100007.44
2022-09-30T10:09:35.585Z,99991.19
2022-09-30T10:14:53.886Z,99989.03
2022-09-30T10:20:01.079Z,99989.97
2022-09-30T10:25:14.477Z,99989.03
2022-09-30T10:30:44.829Z,99982.91
2022-09-30T10:35:59.924Z,99995.34
2022-09-30T10:41:02.883Z,99987.91
2022-09-30T10:51:34.785Z,99990.88
2022-09-30T10:56:45.587Z,99987.31
2022-09-30T11:01:53.743Z,99988.91
2022-09-30T11:07:10.446Z,99983.59
2022-09-30T11:12:21.834Z,99986.00
2022-09-30T11:17:27.116Z,99978.66
2022-09-30T11:22:37.222Z,99977.28
2022-09-30T11:28:11.345Z,99979.53
2022-09-30T11:33:19.266Z,99973.97
2022-09-30T11:38:20.637Z,99971.88
2022-09-30T11:43:32.908Z,99967.22
2022-09-30T11:48:53.026Z,99975.31
2022-09-30T11:53:57.503Z,99973.72
2022-09-30T11:59:02.912Z,99954.97
2022-09-30T12:04:17.139Z,99958.75
2022-09-30T12:09:25.314Z,99960.75
2022-09-30T12:14:34.596Z,99965.44
2022-09-30T12:19:48.109Z,99951.06
2022-09-30T12:24:49.733Z,99962.88
2022-09-30T12:29:59.798Z,99948.88
2022-09-30T12:35:26.245Z,99962.44
2022-09-30T12:40:52.961Z,99962.53
2022-09-30T12:46:05.072Z,99964.28
2022-09-30T12:51:07.041Z,99971.16
2022-09-30T12:56:10.298Z,99974.34
2022-09-30T13:01:27.817Z,99971.03
2022-09-30T13:06:47.628Z,99965.09
2022-09-30T13:11:55.315Z,99969.09
2022-09-30T13:17:09.093Z,99958.72
2022-09-30T13:22:19.789Z,99963.41
2022-09-30T13:27:32.678Z,99966.50
2022-09-30T13:32:36.509Z,99965.53
2022-09-30T13:37:40.002Z,99970.34
2022-09-30T13:42:49.968Z,99967.63
2022-09-30T13:48:10.847Z,99963.84
2022-09-30T13:53:19.527Z,99960.38
2022-09-30T13:58:45.809Z,99967.75
2022-09-30T14:04:22.967Z,99962.97
2022-09-30T14:10:09.078Z,99956.47
2022-09-30T14:15:32.701Z,99950.09
2022-09-30T14:21:01.427Z,99947.94
2022-09-30T14:26:15.357Z,99943.09
2022-09-30T14:31:17.076Z,99936.81
2022-09-30T14:36:22.211Z,99925.38
2022-09-30T14:41:26.185Z,99922.38
2022-09-30T14:46:38.736Z,99922.22
2022-09-30T14:51:46.385Z,99923.25
2022-09-30T14:56:49.527Z,99918.47
2022-09-30T15:01:52.935Z,99925.03
2022-09-30T15:06:55.168Z,99915.72
2022-09-30T15:11:56.921Z,99916.72
2022-09-30T15:17:05.145Z,99914.63
2022-09-30T15:22:11.379Z,99916.94
2022-09-30T15:27:23.479Z,99912.13
2022-09-30T15:32:27.588Z,99908.78
2022-09-30T15:37:29.270Z,99906.44
2022-09-30T15:42:50.972Z,99913.19
2022-09-30T15:47:58.258Z,99907.31
2022-09-30T15:53:04.559Z,99915.06
2022-09-30T15:58:26.099Z,99915.59
2022-09-30T16:03:30.393Z,99914.63
2022-09-30T16:08:38.477Z,99915.06
2022-09-30T16:13:43.785Z,99917.44
2022-09-30T16:18:45.494Z,99925.53
2022-09-30T16:23:48.169Z,99933.13
2022-09-30T16:28:50.654Z,99929.63
2022-09-30T16:33:52.223Z,99931.78
2022-09-30T16:38:53.681Z,99931.13
2022-09-30T16:43:55.148Z,99934.31
2022-09-30T16:48:56.679Z,99931.53
2022-09-30T16:53:58.067Z,99943.34
2022-09-30T16:58:59.644Z,99959.13
2022-09-30T17:04:01.599Z,99953.63
2022-09-30T17:09:04.555Z,99958.41
2022-09-30T17:14:06.145Z,99961.88
2022-09-30T17:19:07.655Z,99968.16
2022-09-30T17:24:09.349Z,99975.78
2022-09-30T17:29:30.847Z,99983.22
2022-09-30T17:34:32.453Z,99995.41
2022-09-30T17:39:34.079Z,99998.75
2022-09-30T17:44:35.497Z,100005.19
2022-09-30T17:49:37.116Z,100008.97
2022-09-30T17:54:38.537Z,100015.72
2022-09-30T17:59:40.065Z,100001.03
2022-09-30T18:04:41.566Z,100002.56
2022-09-30T18:09:43.042Z,99993.94
2022-09-30T18:14:44.819Z,99989.88
2022-09-30T18:19:46.320Z,99989.97
2022-09-30T18:24:47.800Z,100002.56
2022-09-30T18:29:49.454Z,100010.56
2022-09-30T18:34:50.902Z,100007.38
2022-09-30T18:39:52.538Z,99989.66
2022-09-30T18:44:54.102Z,100003.97
2022-09-30T18:49:55.575Z,100003.66
2022-09-30T18:54:57.097Z,100007.28
2022-09-30T18:59:58.992Z,100006.97
2022-09-30T19:05:00.527Z,100008.44
2022-09-30T19:10:02.531Z,100008.28
2022-09-30T19:15:05.736Z,100017.31
2022-09-30T19:20:07.642Z,100021.66
2022-09-30T19:25:11.274Z,100019.84
2022-09-30T19:30:14.454Z,100032.53
2022-09-30T19:35:16.069Z,100035.19
2022-09-30T19:40:21.911Z,100050.03
2022-09-30T19:45:25.802Z,100052.06
2022-09-30T19:50:27.654Z,100062.16
2022-09-30T19:55:29.805Z,100048.69
2022-09-30T20:00:32.097Z,100032.56
2022-09-30T20:05:33.543Z,100032.31
2022-09-30T20:10:34.994Z,100018.53
2022-09-30T20:15:40.436Z,100029.25
2022-09-30T20:20:44.334Z,100023.00
2022-09-30T20:25:48.906Z,100027.00
2022-09-30T20:30:50.427Z,100038.94
2022-09-30T20:35:51.856Z,100046.00
2022-09-30T20:40:57.959Z,100054.84
2022-09-30T20:46:01.982Z,100064.03
2022-09-30T20:51:08.634Z,100054.59
2022-09-30T20:56:13.110Z,100057.88
2022-09-30T21:01:17.493Z,100047.69
2022-09-30T21:06:23.936Z,100041.84
2022-09-30T21:11:25.431Z,100020.13
2022-09-30T21:16:27.009Z,100025.00
2022-09-30T21:21:28.516Z,100010.56
2022-09-30T21:26:29.930Z,100013.19
2022-09-30T21:31:31.752Z,100004.44
2022-09-30T21:36:33.673Z,99996.41
2022-09-30T21:41:35.585Z,99988.84
2022-09-30T21:46:37.334Z,100000.66
2022-09-30T21:51:38.786Z,99975.50
2022-09-30T21:56:41.616Z,99991.41
2022-09-30T22:01:43.296Z,99987.25
2022-09-30T22:06:44.998Z,99983.75
2022-09-30T22:11:46.892Z,99986.38
2022-09-30T22:16:48.385Z,99994.84
2022-09-30T22:21:49.845Z,99989.03
2022-09-30T22:26:51.278Z,99973.63
2022-09-30T22:31:52.819Z,99968.34
2022-09-30T22:36:54.320Z,99964.41
2022-09-30T22:41:57.439Z,99969.56
2022-09-30T22:46:59.088Z,99969.44
2022-09-30T22:52:01.211Z,99970.00
2022-09-30T22:57:03.815Z,99969.31
2022-09-30T23:02:05.330Z,99970.03
2022-09-30T23:07:06.838Z,99968.66
2022-09-30T23:12:08.527Z,99957.19
2022-09-30T23:17:09.967Z,99947.09
2022-09-30T23:22:11.470Z,99932.47
2022-09-30T23:27:12.952Z,99945.50
2022-09-30T23:32:14.414Z,99939.22
2022-09-30T23:37:16.114Z,99928.81
2022-09-30T23:42:17.668Z,99918.59
2022-09-30T23:47:19.168Z,99921.91
2022-09-30T23:52:20.695Z,99919.50
2022-09-30T23:57:22.163Z,99909.78
